createdAt,value
2022-11-02T00:00:15.120Z,99094.00
2022-11-02T00:03:03.160Z,99107.00
2022-11-02T00:05:51.202Z,99107.00
2022-11-02T00:08:38.646Z,99113.00
2022-11-02T00:11:26.272Z,99116.00
2022-11-02T00:14:13.749Z,99117.00
2022-11-02T00:17:01.773Z,99119.00
2022-11-02T00:19:49.231Z,99110.00
2022-11-02T00:22:37.766Z,99111.00
2022-11-02T00:25:27.576Z,99121.00
2022-11-02T00:28:15.711Z,99124.00
2022-11-02T00:31:03.158Z,99113.00
2022-11-02T00:33:51.965Z,99126.00
2022-11-02T00:36:39.437Z,99118.00
2022-11-02T00:39:26.921Z,99124.00
2022-11-02T00:42:14.356Z,99124.00
2022-11-02T00:45:01.786Z,99130.00
2022-11-02T00:47:50.471Z,99129.00
2022-11-02T00:50:37.971Z,99127.00
2022-11-02T00:53:25.407Z,99123.00
2022-11-02T00:56:12.845Z,99129.00
2022-11-02T00:59:00.276Z,99135.00
2022-11-02T01:01:49.536Z,99129.00
2022-11-02T01:04:37.497Z,99126.00
2022-11-02T01:07:24.987Z,99126.00
2022-11-02T01:10:12.440Z,99137.00
2022-11-02T01:13:01.377Z,99130.00
2022-11-02T01:15:48.827Z,99129.00
2022-11-02T01:18:36.576Z,99131.00
2022-11-02T01:21:25.501Z,99127.00
2022-11-02T01:24:13.035Z,99126.00
2022-11-02T01:27:00.570Z,99128.00
2022-11-02T01:29:47.975Z,99127.00
2022-11-02T01:32:35.430Z,99130.00
2022-11-02T01:35:22.863Z,99137.00
2022-11-02T01:38:10.325Z,99136.00
2022-11-02T01:40:57.837Z,99133.00
2022-11-02T01:43:49.301Z,99139.00
2022-11-02T01:46:45.515Z,99140.00
2022-11-02T01:49:38.355Z,99140.00
2022-11-02T01:52:36.923Z,99145.00
2022-11-02T01:55:34.111Z,99140.00
2022-11-02T01:58:21.905Z,99144.00
2022-11-02T02:01:10.356Z,99142.00
2022-11-02T02:03:59.512Z,99146.00
2022-11-02T02:06:49.555Z,99146.00
2022-11-02T02:09:37.525Z,99159.00
2022-11-02T02:12:26.310Z,99154.00
2022-11-02T02:15:14.660Z,99158.00
2022-11-02T02:18:16.649Z,99151.00
2022-11-02T02:21:06.849Z,99150.00
2022-11-02T02:24:49.774Z,99147.00
2022-11-02T02:28:19.665Z,99152.00
2022-11-02T02:31:16.598Z,99153.00
2022-11-02T02:34:17.645Z,99154.00
2022-11-02T02:37:39.001Z,99145.00
2022-11-02T02:40:59.795Z,99149.00
2022-11-02T02:43:54.580Z,99146.00
2022-11-02T02:47:02.432Z,99152.00
2022-11-02T02:49:56.271Z,99146.00
2022-11-02T02:52:49.011Z,99147.00
2022-11-02T02:55:48.825Z,99147.00
2022-11-02T02:58:56.171Z,99144.00
2022-11-02T03:01:46.371Z,99153.00
2022-11-02T03:04:33.955Z,99147.00
2022-11-02T03:07:32.790Z,99148.00
2022-11-02T03:10:34.505Z,99146.00
2022-11-02T03:14:16.649Z,99162.00
2022-11-02T03:17:45.725Z,99161.00
2022-11-02T03:20:59.765Z,99155.00
2022-11-02T03:24:13.345Z,99160.00
2022-11-02T03:27:07.017Z,99161.00
2022-11-02T03:30:18.596Z,99155.00
2022-11-02T03:33:28.049Z,99158.00
2022-11-02T03:36:28.166Z,99156.00
2022-11-02T03:39:24.433Z,99163.00
2022-11-02T03:42:17.795Z,99166.00
2022-11-02T03:45:16.172Z,99168.00
2022-11-02T03:48:08.830Z,99176.00
2022-11-02T03:51:01.143Z,99181.00
2022-11-02T03:54:09.010Z,99182.00
2022-11-02T03:59:50.991Z,99178.00
2022-11-02T04:02:43.133Z,99178.00
2022-11-02T04:05:36.681Z,99186.00
2022-11-02T04:08:35.872Z,99184.00
2022-11-02T04:11:42.145Z,99184.00
2022-11-02T04:14:38.521Z,99188.00
2022-11-02T04:17:44.821Z,99188.00
2022-11-02T04:20:32.177Z,99189.00
2022-11-02T04:23:39.134Z,99193.00
2022-11-02T04:26:27.711Z,99192.00
2022-11-02T04:29:15.326Z,99188.00
2022-11-02T04:32:02.897Z,99199.00
2022-11-02T04:34:50.367Z,99188.00
2022-11-02T04:38:01.798Z,99196.00
2022-11-02T04:41:09.330Z,99193.00
2022-11-02T04:43:57.228Z,99197.00
2022-11-02T04:46:48.167Z,99201.00
2022-11-02T04:49:38.487Z,99204.00
2022-11-02T04:52:25.934Z,99202.00
2022-11-02T04:55:13.466Z,99210.00
2022-11-02T04:58:01.137Z,99216.00
2022-11-02T05:00:48.766Z,99214.00
2022-11-02T05:03:36.532Z,99216.00
2022-11-02T05:06:25.101Z,99220.00
2022-11-02T05:09:12.581Z,99222.00
2022-11-02T05:12:01.886Z,99220.00
2022-11-02T05:14:49.331Z,99229.00
2022-11-02T05:17:36.901Z,99221.00
2022-11-02T05:20:24.299Z,99224.00
2022-11-02T05:23:11.747Z,99226.00
2022-11-02T05:26:02.211Z,99224.00
2022-11-02T05:28:52.672Z,99225.00
2022-11-02T05:31:40.180Z,99232.00
2022-11-02T05:34:27.760Z,99236.00
2022-11-02T05:37:15.336Z,99243.00
2022-11-02T05:40:02.846Z,99239.00
2022-11-02T05:42:50.396Z,99242.00
2022-11-02T05:45:37.956Z,99239.00
2022-11-02T05:48:27.246Z,99249.00
2022-11-02T05:51:14.667Z,99249.00
2022-11-02T05:54:02.201Z,99252.00
2022-11-02T05:56:49.671Z,99255.00
2022-11-02T05:59:37.092Z,99262.00
2022-11-02T06:02:25.456Z,99268.00
2022-11-02T06:05:13.235Z,99263.00
2022-11-02T06:08:02.105Z,99265.00
2022-11-02T06:10:49.600Z,99264.00
2022-11-02T06:13:37.917Z,99269.00
2022-11-02T06:16:25.385Z,99267.00
2022-11-02T06:22:05.200Z,99287.00
2022-11-02T06:24:52.572Z,99284.00
2022-11-02T06:27:45.835Z,99280.00
2022-11-02T06:30:33.590Z,99282.00
2022-11-02T06:33:21.729Z,99287.00
2022-11-02T06:36:09.610Z,99288.00
2022-11-02T06:38:57.057Z,99279.00
2022-11-02T06:41:44.510Z,99297.00
2022-11-02T06:44:32.071Z,99300.00
2022-11-02T06:47:19.448Z,99300.00
2022-11-02T06:50:07.347Z,99298.00
2022-11-02T06:52:54.866Z,99309.00
2022-11-02T06:55:42.300Z,99310.00
2022-11-02T06:58:30.127Z,99314.00
2022-11-02T07:01:17.685Z,99315.00
2022-11-02T07:04:05.496Z,99313.00
2022-11-02T07:06:52.951Z,99310.00
2022-11-02T07:09:40.394Z,99326.00
2022-11-02T07:12:27.984Z,99327.00
2022-11-02T07:15:15.607Z,99336.00
2022-11-02T07:18:03.416Z,99325.00
2022-11-02T07:20:50.917Z,99318.00
2022-11-02T07:23:38.656Z,99326.00
2022-11-02T07:26:27.063Z,99324.00
2022-11-02T07:29:15.376Z,99322.00
2022-11-02T07:32:03.527Z,99331.00
2022-11-02T07:34:50.921Z,99331.00
2022-11-02T07:37:39.487Z,99342.00
2022-11-02T07:40:28.996Z,99338.00
2022-11-02T07:43:16.446Z,99341.00
2022-11-02T07:46:04.715Z,99341.00
2022-11-02T07:48:52.607Z,99336.00
2022-11-02T07:51:40.118Z,99331.00
2022-11-02T07:54:27.521Z,99342.00
2022-11-02T07:57:15.010Z,99333.00
2022-11-02T08:00:02.498Z,99336.00
2022-11-02T08:02:54.859Z,99345.00
2022-11-02T08:05:43.695Z,99341.00
2022-11-02T08:08:31.391Z,99336.00
2022-11-02T08:11:18.841Z,99340.00
2022-11-02T08:14:06.256Z,99343.00
2022-11-02T08:16:53.701Z,99334.00
2022-11-02T08:19:41.117Z,99345.00
2022-11-02T08:22:28.607Z,99344.00
2022-11-02T08:28:26.521Z,99351.00
2022-11-02T08:31:18.426Z,99352.00
2022-11-02T08:34:05.938Z,99354.00
2022-11-02T08:36:53.420Z,99351.00
2022-11-02T08:39:40.935Z,99368.00
2022-11-02T08:42:28.412Z,99357.00
2022-11-02T08:45:16.001Z,99365.00
2022-11-02T08:48:04.076Z,99365.00
2022-11-02T08:50:51.748Z,99360.00
2022-11-02T08:53:39.306Z,99362.00
2022-11-02T08:56:26.807Z,99366.00
2022-11-02T08:59:14.296Z,99357.00
2022-11-02T09:02:01.790Z,99362.00
2022-11-02T09:04:49.541Z,99369.00
2022-11-02T09:07:38.075Z,99370.00
2022-11-02T09:10:27.016Z,99358.00
2022-11-02T09:13:18.372Z,99366.00
2022-11-02T09:16:06.566Z,99369.00
2022-11-02T09:18:54.071Z,99370.00
2022-11-02T09:21:41.721Z,99369.00
2022-11-02T09:24:29.277Z,99368.00
2022-11-02T09:27:16.779Z,99372.00
2022-11-02T09:30:05.611Z,99372.00
2022-11-02T09:33:01.653Z,99372.00
2022-11-02T09:35:50.132Z,99380.00
2022-11-02T09:38:38.331Z,99373.00
2022-11-02T09:41:36.401Z,99380.00
2022-11-02T09:44:44.210Z,99376.00
2022-11-02T09:48:14.728Z,99383.00
2022-11-02T09:51:02.554Z,99384.00
2022-11-02T09:54:13.263Z,99386.00
2022-11-02T09:57:20.387Z,99383.00
2022-11-02T10:00:14.976Z,99380.00
2022-11-02T10:03:18.570Z,99383.00
2022-11-02T10:06:21.667Z,99381.00
2022-11-02T10:09:46.901Z,99384.00
2022-11-02T10:12:50.746Z,99383.00
2022-11-02T10:15:51.202Z,99379.00
2022-11-02T10:18:42.722Z,99376.00
2022-11-02T10:21:42.120Z,99374.00
2022-11-02T10:24:42.911Z,99369.00
2022-11-02T10:27:45.641Z,99368.00
2022-11-02T10:30:33.757Z,99363.00
2022-11-02T10:33:30.493Z,99362.00
2022-11-02T10:36:58.691Z,99361.00
2022-11-02T10:40:22.876Z,99361.00
2022-11-02T10:43:23.021Z,99356.00
2022-11-02T10:46:52.033Z,99351.00
2022-11-02T10:50:11.867Z,99346.00
2022-11-02T10:53:27.356Z,99352.00
2022-11-02T10:56:21.836Z,99360.00
2022-11-02T10:59:20.202Z,99360.00
2022-11-02T11:02:15.425Z,99369.00
2022-11-02T11:05:14.387Z,99372.00
2022-11-02T11:08:03.293Z,99370.00
2022-11-02T11:10:51.000Z,99366.00
2022-11-02T11:16:55.097Z,99360.00
2022-11-02T11:19:54.102Z,99360.00
2022-11-02T11:22:41.992Z,99354.00
2022-11-02T11:25:29.677Z,99347.00
2022-11-02T11:28:50.756Z,99345.00
2022-11-02T11:31:38.350Z,99345.00
2022-11-02T11:34:36.041Z,99340.00
2022-11-02T11:37:25.882Z,99342.00
2022-11-02T11:40:22.894Z,99341.00
2022-11-02T11:43:17.625Z,99330.00
2022-11-02T11:46:09.039Z,99332.00
2022-11-02T11:49:00.432Z,99321.00
2022-11-02T11:51:52.740Z,99319.00
2022-11-02T11:54:40.520Z,99319.00
2022-11-02T11:57:34.832Z,99309.00
2022-11-02T12:00:29.469Z,99322.00
2022-11-02T12:03:16.966Z,99314.00
2022-11-02T12:06:41.891Z,99306.00
2022-11-02T12:09:56.996Z,99295.00
2022-11-02T12:12:59.310Z,99307.00
2022-11-02T12:16:13.917Z,99297.00
2022-11-02T12:19:43.791Z,99298.00
2022-11-02T12:22:36.936Z,99294.00
2022-11-02T12:26:24.545Z,99289.00
2022-11-02T12:29:53.756Z,99286.00
2022-11-02T12:33:09.227Z,99279.00
2022-11-02T12:36:28.391Z,99273.00
2022-11-02T12:39:49.005Z,99280.00
2022-11-02T12:42:56.166Z,99273.00
2022-11-02T12:46:07.681Z,99279.00
2022-11-02T12:49:39.115Z,99285.00
2022-11-02T12:52:46.718Z,99270.00
2022-11-02T12:55:44.240Z,99272.00
2022-11-02T12:58:38.809Z,99266.00
2022-11-02T13:01:44.257Z,99269.00
2022-11-02T13:04:53.136Z,99266.00
2022-11-02T13:08:03.060Z,99275.00
2022-11-02T13:11:04.752Z,99275.00
2022-11-02T13:13:59.220Z,99281.00
2022-11-02T13:16:54.015Z,99275.00
2022-11-02T13:19:52.035Z,99269.00
2022-11-02T13:22:43.797Z,99267.00
2022-11-02T13:25:44.760Z,99267.00
2022-11-02T13:28:43.211Z,99267.00
2022-11-02T13:31:47.530Z,99270.00
2022-11-02T13:34:45.885Z,99261.00
2022-11-02T13:37:43.155Z,99276.00
2022-11-02T13:41:21.630Z,99275.00
2022-11-02T13:44:23.987Z,99270.00
2022-11-02T13:47:56.392Z,99270.00
2022-11-02T13:50:52.115Z,99276.00
2022-11-02T13:53:50.731Z,99265.00
2022-11-02T13:56:39.096Z,99267.00
2022-11-02T13:59:43.198Z,99267.00
2022-11-02T14:02:38.073Z,99275.00
2022-11-02T14:05:41.305Z,99270.00
2022-11-02T14:08:39.452Z,99266.00
2022-11-02T14:11:41.355Z,99273.00
2022-11-02T14:14:28.881Z,99266.00
2022-11-02T14:17:18.646Z,99274.00
2022-11-02T14:20:44.615Z,99275.00
2022-11-02T14:23:37.860Z,99281.00
2022-11-02T14:26:33.360Z,99283.00
2022-11-02T14:29:44.985Z,99276.00
2022-11-02T14:33:00.236Z,99276.00
2022-11-02T14:36:08.546Z,99279.00
2022-11-02T14:39:04.758Z,99264.00
2022-11-02T14:42:10.307Z,99274.00
2022-11-02T14:45:23.701Z,99277.00
2022-11-02T14:48:19.197Z,99267.00
2022-11-02T14:51:18.307Z,99274.00
2022-11-02T14:54:20.270Z,99272.00
2022-11-02T14:57:54.065Z,99269.00
2022-11-02T15:00:47.834Z,99280.00
2022-11-02T15:03:41.466Z,99278.00
2022-11-02T15:06:31.997Z,99283.00
2022-11-02T15:09:56.099Z,99287.00
2022-11-02T15:12:47.336Z,99285.00
2022-11-02T15:15:36.986Z,99285.00
2022-11-02T15:18:30.268Z,99281.00
2022-11-02T15:21:17.880Z,99281.00
2022-11-02T15:24:23.712Z,99285.00
2022-11-02T15:27:13.335Z,99284.00
2022-11-02T15:30:02.678Z,99293.00
2022-11-02T15:33:01.288Z,99288.00
2022-11-02T15:35:54.644Z,99289.00
2022-11-02T15:38:48.298Z,99300.00
2022-11-02T15:41:56.312Z,99298.00
2022-11-02T15:45:26.984Z,99293.00
2022-11-02T15:48:36.733Z,99296.00
2022-11-02T15:51:38.942Z,99295.00
2022-11-02T15:54:56.986Z,99293.00
2022-11-02T15:58:06.285Z,99296.00
2022-11-02T16:01:17.002Z,99296.00
2022-11-02T16:04:08.306Z,99304.00
2022-11-02T16:06:56.007Z,99313.00
2022-11-02T16:09:46.447Z,99312.00
2022-11-02T16:12:35.293Z,99313.00
2022-11-02T16:15:22.872Z,99306.00
2022-11-02T16:18:39.285Z,99317.00
2022-11-02T16:21:27.998Z,99317.00
2022-11-02T16:24:16.181Z,99321.00
2022-11-02T16:27:03.857Z,99322.00
2022-11-02T16:29:51.850Z,99312.00
2022-11-02T16:32:39.435Z,99314.00
2022-11-02T16:35:27.641Z,99315.00
2022-11-02T16:38:17.397Z,99319.00
2022-11-02T16:41:09.451Z,99319.00
2022-11-02T16:44:02.815Z,99307.00
2022-11-02T16:47:20.848Z,99313.00
2022-11-02T16:50:23.537Z,99314.00
2022-11-02T16:53:31.486Z,99322.00
2022-11-02T16:56:29.373Z,99320.00
2022-11-02T16:59:17.228Z,99309.00
2022-11-02T17:02:10.429Z,99299.00
2022-11-02T17:05:02.618Z,99308.00
2022-11-02T17:08:09.287Z,99306.00
2022-11-02T17:11:00.916Z,99316.00
2022-11-02T17:14:00.179Z,99311.00
2022-11-02T17:17:05.501Z,99304.00
2022-11-02T17:20:14.380Z,99307.00
2022-11-02T17:23:28.910Z,99321.00
2022-11-02T17:26:22.320Z,99312.00
2022-11-02T17:29:25.119Z,99320.00
2022-11-02T17:32:17.795Z,99318.00
2022-11-02T17:35:07.340Z,99316.00
2022-11-02T17:37:54.913Z,99322.00
2022-11-02T17:40:43.160Z,99328.00
2022-11-02T17:43:30.649Z,99347.00
2022-11-02T17:46:18.386Z,99345.00
2022-11-02T17:49:05.835Z,99348.00
2022-11-02T17:51:53.446Z,99345.00
2022-11-02T17:54:41.061Z,99343.00
2022-11-02T17:57:30.192Z,99332.00
2022-11-02T18:00:18.796Z,99334.00
2022-11-02T18:03:23.415Z,99333.00
2022-11-02T18:06:14.520Z,99337.00
2022-11-02T18:09:11.201Z,99329.00
2022-11-02T18:11:58.686Z,99330.00
2022-11-02T18:14:46.306Z,99336.00
2022-11-02T18:17:35.071Z,99330.00
2022-11-02T18:20:24.556Z,99339.00
2022-11-02T18:23:19.402Z,99339.00
2022-11-02T18:26:09.156Z,99328.00
2022-11-02T18:28:56.700Z,99322.00
2022-11-02T18:31:44.295Z,99324.00
2022-11-02T18:34:31.790Z,99326.00
2022-11-02T18:37:19.261Z,99326.00
2022-11-02T18:40:09.846Z,99326.00
2022-11-02T18:42:57.230Z,99329.00
2022-11-02T18:45:44.730Z,99327.00
2022-11-02T18:48:32.155Z,99309.00
2022-11-02T18:51:19.675Z,99307.00
2022-11-02T18:54:07.264Z,99299.00
2022-11-02T18:56:55.125Z,99307.00
2022-11-02T18:59:42.587Z,99316.00
2022-11-02T19:02:30.270Z,99325.00
2022-11-02T19:05:36.625Z,99317.00
2022-11-02T19:08:42.876Z,99313.00
2022-11-02T19:11:31.185Z,99309.00
2022-11-02T19:14:20.230Z,99321.00
2022-11-02T19:17:11.180Z,99322.00
2022-11-02T19:19:58.762Z,99323.00
2022-11-02T19:22:49.585Z,99315.00
2022-11-02T19:25:39.825Z,99310.00
2022-11-02T19:28:27.561Z,99297.00
2022-11-02T19:31:15.080Z,99294.00
2022-11-02T19:34:03.286Z,99295.00
2022-11-02T19:36:50.879Z,99300.00
2022-11-02T19:39:38.355Z,99292.00
2022-11-02T19:42:25.798Z,99292.00
2022-11-02T19:45:16.889Z,99306.00
2022-11-02T19:48:04.908Z,99298.00
2022-11-02T19:50:52.585Z,99310.00
2022-11-02T19:53:42.792Z,99298.00
2022-11-02T19:56:33.629Z,99304.00
2022-11-02T19:59:21.190Z,99297.00
2022-11-02T20:02:11.367Z,99308.00
2022-11-02T20:04:58.860Z,99307.00
2022-11-02T20:07:46.306Z,99299.00
2022-11-02T20:10:33.860Z,99300.00
2022-11-02T20:13:21.274Z,99300.00
2022-11-02T20:16:11.840Z,99294.00
2022-11-02T20:18:59.754Z,99304.00
2022-11-02T20:21:47.446Z,99293.00
2022-11-02T20:24:34.899Z,99294.00
2022-11-02T20:27:22.433Z,99285.00
2022-11-02T20:30:10.688Z,99283.00
2022-11-02T20:32:58.150Z,99285.00
2022-11-02T20:35:47.398Z,99279.00
2022-11-02T20:38:36.325Z,99283.00
2022-11-02T20:41:25.181Z,99287.00
2022-11-02T20:44:12.691Z,99291.00
2022-11-02T20:47:00.149Z,99291.00
2022-11-02T20:49:51.471Z,99297.00
2022-11-02T20:52:39.173Z,99293.00
2022-11-02T20:55:26.756Z,99293.00
2022-11-02T20:58:14.171Z,99296.00
2022-11-02T21:01:01.981Z,99292.00
2022-11-02T21:03:49.536Z,99287.00
2022-11-02T21:06:37.110Z,99286.00
2022-11-02T21:09:25.316Z,99276.00
2022-11-02T21:12:35.199Z,99280.00
2022-11-02T21:15:22.571Z,99277.00
2022-11-02T21:18:10.392Z,99266.00
2022-11-02T21:21:09.035Z,99274.00
2022-11-02T21:23:56.656Z,99281.00
2022-11-02T21:26:44.071Z,99274.00
2022-11-02T21:29:31.471Z,99267.00
2022-11-02T21:32:19.011Z,99262.00
2022-11-02T21:35:07.295Z,99261.00
2022-11-02T21:38:01.164Z,99264.00
2022-11-02T21:40:52.124Z,99260.00
2022-11-02T21:43:39.641Z,99254.00
2022-11-02T21:46:27.016Z,99258.00
2022-11-02T21:49:14.545Z,99261.00
2022-11-02T21:52:01.956Z,99260.00
2022-11-02T21:54:49.376Z,99247.00
2022-11-02T21:57:36.770Z,99230.00
2022-11-02T22:00:44.237Z,99244.00
2022-11-02T22:03:31.771Z,99238.00
2022-11-02T22:06:21.377Z,99239.00
2022-11-02T22:09:12.874Z,99229.00
2022-11-02T22:12:19.064Z,99220.00
2022-11-02T22:15:07.756Z,99233.00
2022-11-02T22:17:55.225Z,99228.00
2022-11-02T22:20:42.650Z,99219.00
2022-11-02T22:23:30.131Z,99216.00
2022-11-02T22:26:21.661Z,99214.00
2022-11-02T22:29:09.726Z,99221.00
2022-11-02T22:31:57.220Z,99224.00
2022-11-02T22:34:44.650Z,99226.00
2022-11-02T22:37:50.900Z,99220.00
2022-11-02T22:40:38.361Z,99208.00
2022-11-02T22:43:25.841Z,99214.00
2022-11-02T22:46:15.177Z,99221.00
2022-11-02T22:49:04.896Z,99215.00
2022-11-02T22:51:52.404Z,99209.00
2022-11-02T22:54:39.831Z,99211.00
2022-11-02T22:57:27.217Z,99208.00
2022-11-02T23:00:15.741Z,99212.00
2022-11-02T23:03:03.516Z,99203.00
2022-11-02T23:05:51.622Z,99198.00
2022-11-02T23:08:43.235Z,99205.00
2022-11-02T23:11:36.486Z,99200.00
2022-11-02T23:14:24.090Z,99201.00
2022-11-02T23:17:11.615Z,99202.00
2022-11-02T23:19:59.078Z,99200.00
2022-11-02T23:22:46.456Z,99198.00
2022-11-02T23:25:33.927Z,99201.00
2022-11-02T23:28:40.060Z,99194.00
2022-11-02T23:31:46.010Z,99191.00
2022-11-02T23:34:33.424Z,99182.00
2022-11-02T23:37:20.853Z,99187.00
2022-11-02T23:40:10.360Z,99178.00
2022-11-02T23:42:57.929Z,99180.00
2022-11-02T23:45:45.355Z,99165.00
2022-11-02T23:48:32.876Z,99164.00
2022-11-02T23:51:38.963Z,99173.00
2022-11-02T23:54:45.151Z,99169.00
2022-11-02T23:57:32.627Z,99181.00
